Lebanon, Illinois
Current Conditions -  °F | °C
As of 1:58 AM on Wednesday 26 Nov 2014 (Local Time) from KBLV Reporting Station
Clear Clear  
Wind Chill: 24°   Ceiling: Unl
Heat Index: 24°   Visibility: 10mi
Dew Point: 24°   Wind: 1mph
Humidity: 99%   Direction: 110°ESE
Pressure: 30.13"   Gusts: NA
Location:  38.6°N, 89.81°W
Report Text: KBLV 260758Z AUTO 11001KT 10SM CLR M05/M05 A3013 RMK AO2 SLP211 T10461047
Loading
Personal Weather Stations






























Interactive Weather Map New forecast layout! Learn more

10-Day Weather Forecast

Advertisements
Track Severe Weather on mobile